sensor_id;sensor_type;location;lat;lon;timestamp;temperature;humidity
37844;DHT22;63793;57.632;18.292;2023-06-22T00:01:20;17.80;99.90
37844;DHT22;63793;57.632;18.292;2023-06-22T00:03:49;17.80;99.90
37844;DHT22;63793;57.632;18.292;2023-06-22T00:06:17;17.70;99.90
37844;DHT22;63793;57.632;18.292;2023-06-22T00:08:43;17.80;99.90
37844;DHT22;63793;57.632;18.292;2023-06-22T00:11:11;17.80;99.90
37844;DHT22;63793;57.632;18.292;2023-06-22T00:13:38;17.80;99.90
37844;DHT22;63793;57.632;18.292;2023-06-22T00:16:05;17.70;99.90
37844;DHT22;63793;57.632;18.292;2023-06-22T00:18:32;17.70;99.90
37844;DHT22;63793;57.632;18.292;2023-06-22T00:20:59;17.70;99.90
37844;DHT22;63793;57.632;18.292;2023-06-22T00:23:26;17.70;99.90
37844;DHT22;63793;57.632;18.292;2023-06-22T00:25:53;17.70;99.90
37844;DHT22;63793;57.632;18.292;2023-06-22T00:28:20;17.70;99.90
37844;DHT22;63793;57.632;18.292;2023-06-22T00:30:49;17.70;99.90
37844;DHT22;63793;57.632;18.292;2023-06-22T00:33:17;17.70;99.90
37844;DHT22;63793;57.632;18.292;2023-06-22T00:35:44;17.70;99.90
37844;DHT22;63793;57.632;18.292;2023-06-22T00:38:11;17.70;99.90
37844;DHT22;63793;57.632;18.292;2023-06-22T00:40:41;17.70;99.90
37844;DHT22;63793;57.632;18.292;2023-06-22T00:43:08;17.70;99.90
37844;DHT22;63793;57.632;18.292;2023-06-22T00:45:35;17.70;99.90
37844;DHT22;63793;57.632;18.292;2023-06-22T00:48:02;17.70;99.90
37844;DHT22;63793;57.632;18.292;2023-06-22T00:50:32;17.60;99.90
37844;DHT22;63793;57.632;18.292;2023-06-22T00:53:05;17.60;99.90
37844;DHT22;63793;57.632;18.292;2023-06-22T00:55:41;17.60;99.90
37844;DHT22;63793;57.632;18.292;2023-06-22T00:58:10;17.60;99.90
37844;DHT22;63793;57.632;18.292;2023-06-22T01:00:39;17.60;99.90
37844;DHT22;63793;57.632;18.292;2023-06-22T01:03:06;17.60;99.90
37844;DHT22;63793;57.632;18.292;2023-06-22T01:05:36;17.60;99.90
37844;DHT22;63793;57.632;18.292;2023-06-22T01:14:41;17.60;99.90
37844;DHT22;63793;57.632;18.292;2023-06-22T01:16:40;17.60;99.90
37844;DHT22;63793;57.632;18.292;2023-06-22T01:22:03;17.60;99.90
37844;DHT22;63793;57.632;18.292;2023-06-22T01:24:41;17.60;99.90
37844;DHT22;63793;57.632;18.292;2023-06-22T01:27:21;17.60;99.90
37844;DHT22;63793;57.632;18.292;2023-06-22T01:29:55;17.70;99.90
37844;DHT22;63793;57.632;18.292;2023-06-22T01:32:30;17.70;99.90
37844;DHT22;63793;57.632;18.292;2023-06-22T01:34:59;17.70;99.90
37844;DHT22;63793;57.632;18.292;2023-06-22T01:37:28;17.80;99.90
37844;DHT22;63793;57.632;18.292;2023-06-22T01:39:55;17.70;99.90
37844;DHT22;63793;57.632;18.292;2023-06-22T01:42:24;17.80;99.90
37844;DHT22;63793;57.632;18.292;2023-06-22T01:44:53;17.70;99.90
37844;DHT22;63793;57.632;18.292;2023-06-22T01:47:21;17.70;99.90
37844;DHT22;63793;57.632;18.292;2023-06-22T01:49:49;17.80;99.90
37844;DHT22;63793;57.632;18.292;2023-06-22T01:52:19;17.80;99.90
37844;DHT22;63793;57.632;18.292;2023-06-22T01:54:48;17.80;99.90
37844;DHT22;63793;57.632;18.292;2023-06-22T01:57:15;17.90;99.90
37844;DHT22;63793;57.632;18.292;2023-06-22T02:02:21;17.90;99.90
37844;DHT22;63793;57.632;18.292;2023-06-22T02:05:06;17.80;99.90
37844;DHT22;63793;57.632;18.292;2023-06-22T02:07:41;17.90;99.90
37844;DHT22;63793;57.632;18.292;2023-06-22T02:10:10;17.90;99.90
37844;DHT22;63793;57.632;18.292;2023-06-22T02:12:39;17.90;99.90
37844;DHT22;63793;57.632;18.292;2023-06-22T02:15:10;17.90;99.90
37844;DHT22;63793;57.632;18.292;2023-06-22T02:17:37;17.90;99.90
37844;DHT22;63793;57.632;18.292;2023-06-22T02:20:05;17.90;99.90
37844;DHT22;63793;57.632;18.292;2023-06-22T02:22:35;18.00;99.90
37844;DHT22;63793;57.632;18.292;2023-06-22T02:25:02;18.00;99.90
37844;DHT22;63793;57.632;18.292;2023-06-22T02:27:29;18.00;99.90
37844;DHT22;63793;57.632;18.292;2023-06-22T02:29:57;18.00;99.90
37844;DHT22;63793;57.632;18.292;2023-06-22T02:32:24;18.00;99.90
37844;DHT22;63793;57.632;18.292;2023-06-22T02:34:52;18.00;99.90
37844;DHT22;63793;57.632;18.292;2023-06-22T02:37:18;18.00;99.90
37844;DHT22;63793;57.632;18.292;2023-06-22T02:39:45;18.00;99.90
37844;DHT22;63793;57.632;18.292;2023-06-22T02:42:12;18.00;99.90
37844;DHT22;63793;57.632;18.292;2023-06-22T02:44:39;18.00;99.90
37844;DHT22;63793;57.632;18.292;2023-06-22T02:47:07;18.00;99.90
37844;DHT22;63793;57.632;18.292;2023-06-22T02:49:35;18.00;99.90
37844;DHT22;63793;57.632;18.292;2023-06-22T02:52:02;18.00;99.90
37844;DHT22;63793;57.632;18.292;2023-06-22T02:54:29;18.00;99.90
37844;DHT22;63793;57.632;18.292;2023-06-22T02:56:56;18.00;99.90
37844;DHT22;63793;57.632;18.292;2023-06-22T02:59:23;18.00;99.90
37844;DHT22;63793;57.632;18.292;2023-06-22T03:01:53;18.00;99.90
37844;DHT22;63793;57.632;18.292;2023-06-22T03:04:27;18.00;99.90
37844;DHT22;63793;57.632;18.292;2023-06-22T03:06:54;18.00;99.90
37844;DHT22;63793;57.632;18.292;2023-06-22T03:09:21;18.00;99.90
37844;DHT22;63793;57.632;18.292;2023-06-22T03:11:48;18.00;99.90
37844;DHT22;63793;57.632;18.292;2023-06-22T03:14:15;18.00;99.90
37844;DHT22;63793;57.632;18.292;2023-06-22T03:16:42;18.00;99.90
37844;DHT22;63793;57.632;18.292;2023-06-22T03:19:09;18.00;99.90
37844;DHT22;63793;57.632;18.292;2023-06-22T03:21:37;17.90;99.90
37844;DHT22;63793;57.632;18.292;2023-06-22T03:24:06;18.00;99.90
37844;DHT22;63793;57.632;18.292;2023-06-22T03:26:34;17.90;99.90
37844;DHT22;63793;57.632;18.292;2023-06-22T03:29:01;18.00;99.90
37844;DHT22;63793;57.632;18.292;2023-06-22T03:31:29;18.00;99.90
37844;DHT22;63793;57.632;18.292;2023-06-22T03:33:56;18.00;99.90
37844;DHT22;63793;57.632;18.292;2023-06-22T03:36:23;18.00;99.90
37844;DHT22;63793;57.632;18.292;2023-06-22T03:38:51;18.00;99.90
37844;DHT22;63793;57.632;18.292;2023-06-22T03:41:18;18.00;99.90
37844;DHT22;63793;57.632;18.292;2023-06-22T03:43:46;18.00;99.90
37844;DHT22;63793;57.632;18.292;2023-06-22T03:46:14;18.00;99.90
37844;DHT22;63793;57.632;18.292;2023-06-22T03:48:42;18.00;99.90
37844;DHT22;63793;57.632;18.292;2023-06-22T03:51:09;18.00;99.90
37844;DHT22;63793;57.632;18.292;2023-06-22T03:53:36;18.00;99.90
37844;DHT22;63793;57.632;18.292;2023-06-22T03:56:03;18.00;99.90
37844;DHT22;63793;57.632;18.292;2023-06-22T03:58:30;18.00;99.90
37844;DHT22;63793;57.632;18.292;2023-06-22T04:00:59;18.00;99.90
37844;DHT22;63793;57.632;18.292;2023-06-22T04:03:26;18.00;99.90
37844;DHT22;63793;57.632;18.292;2023-06-22T04:05:53;18.00;99.90
37844;DHT22;63793;57.632;18.292;2023-06-22T04:08:20;18.00;99.90
37844;DHT22;63793;57.632;18.292;2023-06-22T04:10:47;18.00;99.90
37844;DHT22;63793;57.632;18.292;2023-06-22T04:13:14;18.10;99.90
37844;DHT22;63793;57.632;18.292;2023-06-22T04:15:41;18.10;99.90
37844;DHT22;63793;57.632;18.292;2023-06-22T04:18:08;18.10;99.90
37844;DHT22;63793;57.632;18.292;2023-06-22T04:20:35;18.00;99.90
37844;DHT22;63793;57.632;18.292;2023-06-22T04:23:03;18.00;99.90
37844;DHT22;63793;57.632;18.292;2023-06-22T04:25:29;18.00;99.90
37844;DHT22;63793;57.632;18.292;2023-06-22T04:27:56;18.10;99.90
37844;DHT22;63793;57.632;18.292;2023-06-22T04:30:23;18.00;99.90
37844;DHT22;63793;57.632;18.292;2023-06-22T04:32:50;18.00;99.90
37844;DHT22;63793;57.632;18.292;2023-06-22T04:35:23;18.00;99.90
37844;DHT22;63793;57.632;18.292;2023-06-22T04:37:50;18.00;99.90
37844;DHT22;63793;57.632;18.292;2023-06-22T04:40:22;18.00;99.90
37844;DHT22;63793;57.632;18.292;2023-06-22T04:42:49;18.00;99.90
37844;DHT22;63793;57.632;18.292;2023-06-22T04:45:20;18.00;99.90
37844;DHT22;63793;57.632;18.292;2023-06-22T04:47:48;18.10;99.90
37844;DHT22;63793;57.632;18.292;2023-06-22T04:50:15;18.10;99.90
37844;DHT22;63793;57.632;18.292;2023-06-22T04:52:42;18.10;99.90
37844;DHT22;63793;57.632;18.292;2023-06-22T04:55:09;18.10;99.90
37844;DHT22;63793;57.632;18.292;2023-06-22T04:57:36;18.10;99.90
37844;DHT22;63793;57.632;18.292;2023-06-22T05:00:06;18.10;99.90
37844;DHT22;63793;57.632;18.292;2023-06-22T05:02:40;18.10;99.90
37844;DHT22;63793;57.632;18.292;2023-06-22T05:05:08;18.20;99.90
37844;DHT22;63793;57.632;18.292;2023-06-22T05:07:36;18.20;99.90
37844;DHT22;63793;57.632;18.292;2023-06-22T05:10:04;18.20;99.90
37844;DHT22;63793;57.632;18.292;2023-06-22T05:12:31;18.10;99.90
37844;DHT22;63793;57.632;18.292;2023-06-22T05:14:58;18.10;99.90
37844;DHT22;63793;57.632;18.292;2023-06-22T05:17:25;18.00;99.90
37844;DHT22;63793;57.632;18.292;2023-06-22T05:19:52;18.10;99.90
37844;DHT22;63793;57.632;18.292;2023-06-22T05:22:19;18.10;99.90
37844;DHT22;63793;57.632;18.292;2023-06-22T05:24:46;18.10;99.90
37844;DHT22;63793;57.632;18.292;2023-06-22T05:27:14;18.10;99.90
37844;DHT22;63793;57.632;18.292;2023-06-22T05:29:41;18.00;99.90
37844;DHT22;63793;57.632;18.292;2023-06-22T05:32:09;18.00;99.90
37844;DHT22;63793;57.632;18.292;2023-06-22T05:34:36;18.00;99.90
37844;DHT22;63793;57.632;18.292;2023-06-22T05:37:03;18.00;99.90
37844;DHT22;63793;57.632;18.292;2023-06-22T05:39:30;18.00;99.90
37844;DHT22;63793;57.632;18.292;2023-06-22T05:41:57;18.00;99.90
37844;DHT22;63793;57.632;18.292;2023-06-22T05:44:24;17.90;99.90
37844;DHT22;63793;57.632;18.292;2023-06-22T05:46:51;18.00;99.90
37844;DHT22;63793;57.632;18.292;2023-06-22T05:49:18;18.00;99.90
37844;DHT22;63793;57.632;18.292;2023-06-22T05:51:45;18.00;99.90
37844;DHT22;63793;57.632;18.292;2023-06-22T05:54:12;17.90;99.90
37844;DHT22;63793;57.632;18.292;2023-06-22T05:56:40;17.90;99.90
37844;DHT22;63793;57.632;18.292;2023-06-22T05:59:07;17.80;99.90
37844;DHT22;63793;57.632;18.292;2023-06-22T06:01:34;17.80;99.90
37844;DHT22;63793;57.632;18.292;2023-06-22T06:04:06;17.80;99.90
37844;DHT22;63793;57.632;18.292;2023-06-22T06:06:35;17.80;99.90
37844;DHT22;63793;57.632;18.292;2023-06-22T06:09:04;17.80;99.90
37844;DHT22;63793;57.632;18.292;2023-06-22T06:11:31;17.80;99.90
37844;DHT22;63793;57.632;18.292;2023-06-22T06:13:58;17.80;99.90
37844;DHT22;63793;57.632;18.292;2023-06-22T06:16:25;17.80;99.90
37844;DHT22;63793;57.632;18.292;2023-06-22T06:18:52;17.80;99.90
37844;DHT22;63793;57.632;18.292;2023-06-22T06:21:21;17.80;99.90
37844;DHT22;63793;57.632;18.292;2023-06-22T06:23:48;17.90;99.90
37844;DHT22;63793;57.632;18.292;2023-06-22T06:26:15;17.90;99.90
37844;DHT22;63793;57.632;18.292;2023-06-22T06:28:43;17.90;99.90
37844;DHT22;63793;57.632;18.292;2023-06-22T06:31:10;17.90;99.90
37844;DHT22;63793;57.632;18.292;2023-06-22T06:33:39;17.90;99.90
37844;DHT22;63793;57.632;18.292;2023-06-22T06:36:06;17.90;99.90
37844;DHT22;63793;57.632;18.292;2023-06-22T06:38:35;17.90;99.90
37844;DHT22;63793;57.632;18.292;2023-06-22T06:41:02;17.90;99.90
37844;DHT22;63793;57.632;18.292;2023-06-22T06:43:29;18.00;99.90
37844;DHT22;63793;57.632;18.292;2023-06-22T06:45:55;18.00;99.90
37844;DHT22;63793;57.632;18.292;2023-06-22T06:48:22;18.00;99.90
37844;DHT22;63793;57.632;18.292;2023-06-22T06:50:49;18.00;99.90
37844;DHT22;63793;57.632;18.292;2023-06-22T06:53:16;18.00;99.90
37844;DHT22;63793;57.632;18.292;2023-06-22T06:55:43;18.00;99.90
37844;DHT22;63793;57.632;18.292;2023-06-22T06:58:12;18.10;99.90
37844;DHT22;63793;57.632;18.292;2023-06-22T07:00:40;18.10;99.90
37844;DHT22;63793;57.632;18.292;2023-06-22T07:03:07;18.10;99.90
37844;DHT22;63793;57.632;18.292;2023-06-22T07:05:34;18.20;99.90
37844;DHT22;63793;57.632;18.292;2023-06-22T07:08:02;18.20;99.90
37844;DHT22;63793;57.632;18.292;2023-06-22T07:10:29;18.30;99.90
37844;DHT22;63793;57.632;18.292;2023-06-22T07:12:56;18.30;99.90
37844;DHT22;63793;57.632;18.292;2023-06-22T07:15:24;18.30;99.90
37844;DHT22;63793;57.632;18.292;2023-06-22T07:17:51;18.40;99.90
37844;DHT22;63793;57.632;18.292;2023-06-22T07:20:18;18.40;99.90
37844;DHT22;63793;57.632;18.292;2023-06-22T07:22:46;18.40;99.90
37844;DHT22;63793;57.632;18.292;2023-06-22T07:25:13;18.50;99.90
37844;DHT22;63793;57.632;18.292;2023-06-22T07:27:56;18.50;99.90
37844;DHT22;63793;57.632;18.292;2023-06-22T07:30:23;18.50;99.90
37844;DHT22;63793;57.632;18.292;2023-06-22T07:32:50;18.60;99.90
37844;DHT22;63793;57.632;18.292;2023-06-22T07:35:17;18.60;99.90
37844;DHT22;63793;57.632;18.292;2023-06-22T07:37:44;18.60;99.90
37844;DHT22;63793;57.632;18.292;2023-06-22T07:40:12;18.70;99.90
37844;DHT22;63793;57.632;18.292;2023-06-22T07:42:39;18.70;99.90
37844;DHT22;63793;57.632;18.292;2023-06-22T07:45:07;18.70;99.90
37844;DHT22;63793;57.632;18.292;2023-06-22T07:47:35;18.80;99.90
37844;DHT22;63793;57.632;18.292;2023-06-22T07:50:03;18.70;99.90
37844;DHT22;63793;57.632;18.292;2023-06-22T07:52:31;18.60;99.90
37844;DHT22;63793;57.632;18.292;2023-06-22T07:54:58;18.60;99.90
37844;DHT22;63793;57.632;18.292;2023-06-22T07:57:25;18.60;99.90
37844;DHT22;63793;57.632;18.292;2023-06-22T08:00:04;18.70;99.90
37844;DHT22;63793;57.632;18.292;2023-06-22T08:02:43;18.80;99.90
37844;DHT22;63793;57.632;18.292;2023-06-22T08:05:11;18.90;99.90
37844;DHT22;63793;57.632;18.292;2023-06-22T08:07:48;19.00;99.90
37844;DHT22;63793;57.632;18.292;2023-06-22T08:10:16;19.10;99.90
37844;DHT22;63793;57.632;18.292;2023-06-22T08:12:43;19.00;99.90
37844;DHT22;63793;57.632;18.292;2023-06-22T08:15:10;19.10;99.90
37844;DHT22;63793;57.632;18.292;2023-06-22T08:17:38;19.20;99.90
37844;DHT22;63793;57.632;18.292;2023-06-22T08:20:06;19.20;99.90
37844;DHT22;63793;57.632;18.292;2023-06-22T08:22:39;19.20;99.90
37844;DHT22;63793;57.632;18.292;2023-06-22T08:25:07;19.30;99.90
37844;DHT22;63793;57.632;18.292;2023-06-22T08:27:34;19.40;99.90
37844;DHT22;63793;57.632;18.292;2023-06-22T08:30:02;19.40;99.90
37844;DHT22;63793;57.632;18.292;2023-06-22T08:32:30;19.30;99.90
37844;DHT22;63793;57.632;18.292;2023-06-22T08:34:59;19.30;99.90
37844;DHT22;63793;57.632;18.292;2023-06-22T08:37:28;19.30;99.90
37844;DHT22;63793;57.632;18.292;2023-06-22T08:40:02;19.40;99.90
37844;DHT22;63793;57.632;18.292;2023-06-22T08:42:40;19.40;99.90
37844;DHT22;63793;57.632;18.292;2023-06-22T08:45:07;19.50;99.90
37844;DHT22;63793;57.632;18.292;2023-06-22T08:47:34;19.60;99.90
37844;DHT22;63793;57.632;18.292;2023-06-22T08:50:01;19.60;99.90
37844;DHT22;63793;57.632;18.292;2023-06-22T08:52:31;19.70;99.90
37844;DHT22;63793;57.632;18.292;2023-06-22T08:54:58;19.80;99.90
37844;DHT22;63793;57.632;18.292;2023-06-22T08:57:25;19.80;99.90
37844;DHT22;63793;57.632;18.292;2023-06-22T08:59:52;19.80;99.90
37844;DHT22;63793;57.632;18.292;2023-06-22T09:02:19;19.70;99.90
37844;DHT22;63793;57.632;18.292;2023-06-22T09:04:47;19.70;99.90
37844;DHT22;63793;57.632;18.292;2023-06-22T09:07:14;19.80;99.90
37844;DHT22;63793;57.632;18.292;2023-06-22T09:09:41;19.90;99.90
37844;DHT22;63793;57.632;18.292;2023-06-22T09:12:08;20.00;99.90
37844;DHT22;63793;57.632;18.292;2023-06-22T09:14:35;20.10;99.90
37844;DHT22;63793;57.632;18.292;2023-06-22T09:17:02;20.10;99.90
37844;DHT22;63793;57.632;18.292;2023-06-22T09:19:29;20.10;99.90
37844;DHT22;63793;57.632;18.292;2023-06-22T09:21:56;20.10;99.90
37844;DHT22;63793;57.632;18.292;2023-06-22T09:24:23;20.20;99.90
37844;DHT22;63793;57.632;18.292;2023-06-22T09:26:50;20.20;99.90
37844;DHT22;63793;57.632;18.292;2023-06-22T09:29:17;20.20;99.90
37844;DHT22;63793;57.632;18.292;2023-06-22T09:31:44;20.20;99.90
37844;DHT22;63793;57.632;18.292;2023-06-22T09:34:11;20.20;99.90
37844;DHT22;63793;57.632;18.292;2023-06-22T09:36:38;20.20;99.90
37844;DHT22;63793;57.632;18.292;2023-06-22T09:39:06;20.30;99.90
37844;DHT22;63793;57.632;18.292;2023-06-22T09:41:33;20.20;99.90
37844;DHT22;63793;57.632;18.292;2023-06-22T09:44:00;20.30;99.90
37844;DHT22;63793;57.632;18.292;2023-06-22T09:46:27;20.20;99.90
37844;DHT22;63793;57.632;18.292;2023-06-22T09:48:54;20.20;99.90
37844;DHT22;63793;57.632;18.292;2023-06-22T09:51:21;20.40;99.90
37844;DHT22;63793;57.632;18.292;2023-06-22T09:53:50;20.30;99.90
37844;DHT22;63793;57.632;18.292;2023-06-22T09:56:17;20.40;99.90
37844;DHT22;63793;57.632;18.292;2023-06-22T09:58:46;20.40;99.90
37844;DHT22;63793;57.632;18.292;2023-06-22T10:01:13;20.50;99.90
37844;DHT22;63793;57.632;18.292;2023-06-22T10:03:43;20.50;99.90
37844;DHT22;63793;57.632;18.292;2023-06-22T10:06:10;20.60;99.90
37844;DHT22;63793;57.632;18.292;2023-06-22T10:08:37;20.70;99.90
37844;DHT22;63793;57.632;18.292;2023-06-22T10:11:04;20.90;99.90
37844;DHT22;63793;57.632;18.292;2023-06-22T10:13:32;21.20;99.90
37844;DHT22;63793;57.632;18.292;2023-06-22T10:15:59;21.30;99.90
37844;DHT22;63793;57.632;18.292;2023-06-22T10:18:26;21.40;99.90
37844;DHT22;63793;57.632;18.292;2023-06-22T10:20:53;21.30;99.90
37844;DHT22;63793;57.632;18.292;2023-06-22T10:23:20;21.20;99.90
37844;DHT22;63793;57.632;18.292;2023-06-22T10:25:47;21.30;99.90
37844;DHT22;63793;57.632;18.292;2023-06-22T10:28:14;21.20;99.90
37844;DHT22;63793;57.632;18.292;2023-06-22T10:30:41;21.40;99.90
37844;DHT22;63793;57.632;18.292;2023-06-22T10:33:12;21.50;99.90
37844;DHT22;63793;57.632;18.292;2023-06-22T10:35:39;21.60;99.90
37844;DHT22;63793;57.632;18.292;2023-06-22T10:38:06;21.70;99.90
37844;DHT22;63793;57.632;18.292;2023-06-22T10:40:33;21.70;99.90
37844;DHT22;63793;57.632;18.292;2023-06-22T10:43:00;21.80;99.90
37844;DHT22;63793;57.632;18.292;2023-06-22T10:45:27;21.90;99.90
37844;DHT22;63793;57.632;18.292;2023-06-22T10:47:57;22.00;99.90
37844;DHT22;63793;57.632;18.292;2023-06-22T10:50:24;22.10;99.90
37844;DHT22;63793;57.632;18.292;2023-06-22T10:52:52;22.00;99.90
37844;DHT22;63793;57.632;18.292;2023-06-22T10:55:19;22.00;99.90
37844;DHT22;63793;57.632;18.292;2023-06-22T10:57:46;22.20;99.90
37844;DHT22;63793;57.632;18.292;2023-06-22T11:00:14;22.30;99.90
37844;DHT22;63793;57.632;18.292;2023-06-22T11:02:43;22.40;99.90
37844;DHT22;63793;57.632;18.292;2023-06-22T11:05:10;22.50;99.90
37844;DHT22;63793;57.632;18.292;2023-06-22T11:07:38;22.70;99.90
37844;DHT22;63793;57.632;18.292;2023-06-22T11:10:12;22.80;99.90
37844;DHT22;63793;57.632;18.292;2023-06-22T11:12:40;22.90;99.90
37844;DHT22;63793;57.632;18.292;2023-06-22T11:15:07;22.80;99.90
37844;DHT22;63793;57.632;18.292;2023-06-22T11:17:34;22.80;99.90
37844;DHT22;63793;57.632;18.292;2023-06-22T11:20:02;22.90;99.90
37844;DHT22;63793;57.632;18.292;2023-06-22T11:22:32;22.90;99.90
37844;DHT22;63793;57.632;18.292;2023-06-22T11:25:00;23.10;99.90
37844;DHT22;63793;57.632;18.292;2023-06-22T11:27:27;23.00;99.90
37844;DHT22;63793;57.632;18.292;2023-06-22T11:29:54;23.00;99.90
37844;DHT22;63793;57.632;18.292;2023-06-22T11:32:22;22.80;99.90
37844;DHT22;63793;57.632;18.292;2023-06-22T11:34:49;22.70;99.90
37844;DHT22;63793;57.632;18.292;2023-06-22T11:37:16;22.90;99.90
37844;DHT22;63793;57.632;18.292;2023-06-22T11:39:43;23.10;99.90
37844;DHT22;63793;57.632;18.292;2023-06-22T11:42:19;23.00;99.90
37844;DHT22;63793;57.632;18.292;2023-06-22T11:44:46;23.00;99.90
37844;DHT22;63793;57.632;18.292;2023-06-22T11:47:13;23.00;99.90
37844;DHT22;63793;57.632;18.292;2023-06-22T11:49:40;23.00;99.90
37844;DHT22;63793;57.632;18.292;2023-06-22T11:52:07;23.00;99.90
37844;DHT22;63793;57.632;18.292;2023-06-22T11:54:34;23.20;99.90
37844;DHT22;63793;57.632;18.292;2023-06-22T11:57:01;23.40;99.90
37844;DHT22;63793;57.632;18.292;2023-06-22T11:59:28;23.50;99.90
37844;DHT22;63793;57.632;18.292;2023-06-22T12:01:55;23.60;99.90
37844;DHT22;63793;57.632;18.292;2023-06-22T12:04:22;23.70;99.90
37844;DHT22;63793;57.632;18.292;2023-06-22T12:06:49;23.70;99.90
37844;DHT22;63793;57.632;18.292;2023-06-22T12:09:16;23.80;99.90
37844;DHT22;63793;57.632;18.292;2023-06-22T12:11:43;23.90;99.90
37844;DHT22;63793;57.632;18.292;2023-06-22T12:14:09;23.90;99.90
37844;DHT22;63793;57.632;18.292;2023-06-22T12:16:36;23.90;99.90
37844;DHT22;63793;57.632;18.292;2023-06-22T12:19:04;23.80;99.90
37844;DHT22;63793;57.632;18.292;2023-06-22T12:21:31;23.90;99.90
37844;DHT22;63793;57.632;18.292;2023-06-22T12:23:58;24.00;99.90
37844;DHT22;63793;57.632;18.292;2023-06-22T12:26:24;23.90;99.90
37844;DHT22;63793;57.632;18.292;2023-06-22T12:28:51;23.90;99.90
37844;DHT22;63793;57.632;18.292;2023-06-22T12:31:18;23.80;99.90
37844;DHT22;63793;57.632;18.292;2023-06-22T12:33:45;23.90;99.90
37844;DHT22;63793;57.632;18.292;2023-06-22T12:36:12;23.90;99.90
37844;DHT22;63793;57.632;18.292;2023-06-22T12:38:39;24.10;99.90
37844;DHT22;63793;57.632;18.292;2023-06-22T12:41:06;24.10;99.90
37844;DHT22;63793;57.632;18.292;2023-06-22T12:43:32;23.90;99.90
37844;DHT22;63793;57.632;18.292;2023-06-22T12:45:59;23.80;99.90
37844;DHT22;63793;57.632;18.292;2023-06-22T12:48:27;24.00;99.90
37844;DHT22;63793;57.632;18.292;2023-06-22T12:50:54;24.10;99.90
37844;DHT22;63793;57.632;18.292;2023-06-22T12:53:21;24.30;99.90
37844;DHT22;63793;57.632;18.292;2023-06-22T12:55:50;24.60;99.90
37844;DHT22;63793;57.632;18.292;2023-06-22T12:58:17;24.80;99.90
37844;DHT22;63793;57.632;18.292;2023-06-22T13:00:44;24.70;99.90
37844;DHT22;63793;57.632;18.292;2023-06-22T13:03:11;24.90;99.90
37844;DHT22;63793;57.632;18.292;2023-06-22T13:05:38;25.10;99.90
37844;DHT22;63793;57.632;18.292;2023-06-22T13:08:05;24.90;99.90
37844;DHT22;63793;57.632;18.292;2023-06-22T13:10:32;25.00;99.90
37844;DHT22;63793;57.632;18.292;2023-06-22T13:12:59;25.10;99.90
37844;DHT22;63793;57.632;18.292;2023-06-22T13:15:28;25.30;99.90
37844;DHT22;63793;57.632;18.292;2023-06-22T13:17:56;25.40;99.90
37844;DHT22;63793;57.632;18.292;2023-06-22T13:20:23;25.40;99.90
37844;DHT22;63793;57.632;18.292;2023-06-22T13:22:50;25.30;99.90
37844;DHT22;63793;57.632;18.292;2023-06-22T13:25:17;25.20;99.90
37844;DHT22;63793;57.632;18.292;2023-06-22T13:27:46;25.30;99.90
37844;DHT22;63793;57.632;18.292;2023-06-22T13:30:13;25.20;99.90
37844;DHT22;63793;57.632;18.292;2023-06-22T13:32:41;25.20;99.90
37844;DHT22;63793;57.632;18.292;2023-06-22T13:35:10;25.20;99.90
37844;DHT22;63793;57.632;18.292;2023-06-22T13:37:37;25.40;99.90
37844;DHT22;63793;57.632;18.292;2023-06-22T13:40:07;25.60;99.70
37844;DHT22;63793;57.632;18.292;2023-06-22T13:42:34;25.60;99.30
37844;DHT22;63793;57.632;18.292;2023-06-22T13:45:02;25.50;99.40
37844;DHT22;63793;57.632;18.292;2023-06-22T13:47:29;25.60;99.00
37844;DHT22;63793;57.632;18.292;2023-06-22T13:49:58;25.60;99.00
37844;DHT22;63793;57.632;18.292;2023-06-22T13:52:25;25.70;99.40
37844;DHT22;63793;57.632;18.292;2023-06-22T13:54:52;26.00;98.80
37844;DHT22;63793;57.632;18.292;2023-06-22T13:57:19;26.00;97.90
37844;DHT22;63793;57.632;18.292;2023-06-22T13:59:46;25.90;98.40
37844;DHT22;63793;57.632;18.292;2023-06-22T14:02:13;26.00;98.00
37844;DHT22;63793;57.632;18.292;2023-06-22T14:04:40;26.20;98.30
37844;DHT22;63793;57.632;18.292;2023-06-22T14:07:07;26.30;97.60
37844;DHT22;63793;57.632;18.292;2023-06-22T14:09:35;26.30;98.00
37844;DHT22;63793;57.632;18.292;2023-06-22T14:12:05;26.50;97.60
37844;DHT22;63793;57.632;18.292;2023-06-22T14:14:33;26.50;97.10
37844;DHT22;63793;57.632;18.292;2023-06-22T14:17:00;26.70;97.10
37844;DHT22;63793;57.632;18.292;2023-06-22T14:19:27;26.60;96.90
37844;DHT22;63793;57.632;18.292;2023-06-22T14:21:54;26.50;97.30
37844;DHT22;63793;57.632;18.292;2023-06-22T14:24:21;26.40;97.30
37844;DHT22;63793;57.632;18.292;2023-06-22T14:27:08;26.60;97.40
37844;DHT22;63793;57.632;18.292;2023-06-22T14:29:36;26.60;97.40
37844;DHT22;63793;57.632;18.292;2023-06-22T14:32:03;26.60;96.20
37844;DHT22;63793;57.632;18.292;2023-06-22T14:34:31;26.60;97.00
37844;DHT22;63793;57.632;18.292;2023-06-22T14:36:58;26.80;96.90
37844;DHT22;63793;57.632;18.292;2023-06-22T14:39:25;26.90;96.10
37844;DHT22;63793;57.632;18.292;2023-06-22T14:41:51;26.80;95.50
37844;DHT22;63793;57.632;18.292;2023-06-22T14:44:18;26.80;96.00
37844;DHT22;63793;57.632;18.292;2023-06-22T14:46:45;27.00;96.20
37844;DHT22;63793;57.632;18.292;2023-06-22T14:49:12;26.80;96.20
37844;DHT22;63793;57.632;18.292;2023-06-22T14:51:39;26.90;96.50
37844;DHT22;63793;57.632;18.292;2023-06-22T14:54:06;27.00;95.30
37844;DHT22;63793;57.632;18.292;2023-06-22T14:56:33;27.00;95.90
37844;DHT22;63793;57.632;18.292;2023-06-22T14:59:00;27.30;95.70
37844;DHT22;63793;57.632;18.292;2023-06-22T15:01:27;27.20;95.00
37844;DHT22;63793;57.632;18.292;2023-06-22T15:03:54;27.20;95.10
37844;DHT22;63793;57.632;18.292;2023-06-22T15:06:22;27.10;94.80
37844;DHT22;63793;57.632;18.292;2023-06-22T15:08:49;27.10;94.20
37844;DHT22;63793;57.632;18.292;2023-06-22T15:11:15;27.10;94.40
37844;DHT22;63793;57.632;18.292;2023-06-22T15:13:42;27.10;94.40
37844;DHT22;63793;57.632;18.292;2023-06-22T15:16:09;27.10;93.90
37844;DHT22;63793;57.632;18.292;2023-06-22T15:18:37;27.00;93.90
37844;DHT22;63793;57.632;18.292;2023-06-22T15:21:04;26.90;94.10
37844;DHT22;63793;57.632;18.292;2023-06-22T15:23:32;27.10;94.50
37844;DHT22;63793;57.632;18.292;2023-06-22T15:26:01;27.40;94.90
37844;DHT22;63793;57.632;18.292;2023-06-22T15:28:29;27.60;94.30
37844;DHT22;63793;57.632;18.292;2023-06-22T15:30:56;27.80;94.40